Proberta, California
Current Conditions -  °F | °C
As of 12:54 AM on Saturday 29 Nov 2014 (Local Time) from KRBL Reporting Station
Overcast Overcast  
Wind Chill: 52°   Ceiling: 2600
Heat Index: 52°   Visibility: 10mi
Dew Point: 49°   Wind: 6mph
Humidity: 89%   Direction: 200°SSW
Pressure: 29.82"   Gusts: NA
Location:  40.08°N, 122.17°W
Report Text: KRBL 290854Z AUTO 20005KT 10SM FEW013 OVC026 11/09 A2982 RMK AO2 RAE52 SLP098 P0004 60008 T01110094 56003
Loading
Personal Weather Stations






























Interactive Weather Map New forecast layout! Learn more

10-Day Weather Forecast

Advertisements
Track Severe Weather on mobile